sensor_id;sensor_type;location;lat;lon;timestamp;P1;durP1;ratioP1;P2;durP2;ratioP2
57842;SDS011;43673;51.058;3.734;2023-09-18T00:00:04;15.18;;;12.23;;
57842;SDS011;43673;51.058;3.734;2023-09-18T00:02:34;15.48;;;12.73;;
57842;SDS011;43673;51.058;3.734;2023-09-18T00:04:59;19.40;;;12.13;;
57842;SDS011;43673;51.058;3.734;2023-09-18T00:07:25;12.15;;;10.73;;
57842;SDS011;43673;51.058;3.734;2023-09-18T00:09:51;15.13;;;11.82;;
57842;SDS011;43673;51.058;3.734;2023-09-18T00:12:17;14.65;;;11.95;;
57842;SDS011;43673;51.058;3.734;2023-09-18T00:14:43;16.10;;;11.70;;
57842;SDS011;43673;51.058;3.734;2023-09-18T00:17:09;12.30;;;10.15;;
57842;SDS011;43673;51.058;3.734;2023-09-18T00:19:34;15.82;;;10.73;;
57842;SDS011;43673;51.058;3.734;2023-09-18T00:22:00;13.18;;;9.82;;
57842;SDS011;43673;51.058;3.734;2023-09-18T00:24:26;13.77;;;9.55;;
57842;SDS011;43673;51.058;3.734;2023-09-18T00:26:52;11.77;;;9.07;;
57842;SDS011;43673;51.058;3.734;2023-09-18T00:29:19;11.90;;;8.70;;
57842;SDS011;43673;51.058;3.734;2023-09-18T00:31:44;9.38;;;7.88;;
57842;SDS011;43673;51.058;3.734;2023-09-18T00:34:10;8.48;;;7.57;;
57842;SDS011;43673;51.058;3.734;2023-09-18T00:36:36;13.75;;;8.45;;
57842;SDS011;43673;51.058;3.734;2023-09-18T00:39:02;11.38;;;7.53;;
57842;SDS011;43673;51.058;3.734;2023-09-18T00:41:28;10.43;;;7.80;;
57842;SDS011;43673;51.058;3.734;2023-09-18T00:43:54;11.15;;;8.00;;
57842;SDS011;43673;51.058;3.734;2023-09-18T00:46:20;10.98;;;7.28;;
57842;SDS011;43673;51.058;3.734;2023-09-18T00:48:46;10.18;;;7.22;;
57842;SDS011;43673;51.058;3.734;2023-09-18T00:51:13;12.18;;;7.82;;
57842;SDS011;43673;51.058;3.734;2023-09-18T00:53:41;10.45;;;7.20;;
57842;SDS011;43673;51.058;3.734;2023-09-18T00:56:09;10.17;;;7.60;;
57842;SDS011;43673;51.058;3.734;2023-09-18T00:58:36;9.77;;;7.63;;
57842;SDS011;43673;51.058;3.734;2023-09-18T01:01:02;9.40;;;6.75;;
57842;SDS011;43673;51.058;3.734;2023-09-18T01:03:29;10.05;;;7.30;;
57842;SDS011;43673;51.058;3.734;2023-09-18T01:05:55;10.70;;;6.95;;
57842;SDS011;43673;51.058;3.734;2023-09-18T01:08:21;9.23;;;7.07;;
57842;SDS011;43673;51.058;3.734;2023-09-18T01:13:23;9.52;;;7.35;;
57842;SDS011;43673;51.058;3.734;2023-09-18T01:15:57;9.07;;;7.03;;
57842;SDS011;43673;51.058;3.734;2023-09-18T01:18:27;12.23;;;7.78;;
57842;SDS011;43673;51.058;3.734;2023-09-18T01:20:53;12.15;;;7.20;;
57842;SDS011;43673;51.058;3.734;2023-09-18T01:23:18;10.20;;;6.82;;
57842;SDS011;43673;51.058;3.734;2023-09-18T01:25:44;7.75;;;6.93;;
57842;SDS011;43673;51.058;3.734;2023-09-18T01:28:10;10.65;;;7.13;;
57842;SDS011;43673;51.058;3.734;2023-09-18T01:30:35;8.02;;;6.43;;
57842;SDS011;43673;51.058;3.734;2023-09-18T01:33:03;10.00;;;7.05;;
57842;SDS011;43673;51.058;3.734;2023-09-18T01:35:29;8.48;;;7.60;;
57842;SDS011;43673;51.058;3.734;2023-09-18T01:37:59;9.13;;;6.63;;
57842;SDS011;43673;51.058;3.734;2023-09-18T01:40:25;11.65;;;7.57;;
57842;SDS011;43673;51.058;3.734;2023-09-18T01:42:52;10.73;;;7.75;;
57842;SDS011;43673;51.058;3.734;2023-09-18T01:45:18;9.73;;;7.55;;
57842;SDS011;43673;51.058;3.734;2023-09-18T01:47:44;15.93;;;8.48;;
57842;SDS011;43673;51.058;3.734;2023-09-18T01:50:11;16.25;;;8.60;;
57842;SDS011;43673;51.058;3.734;2023-09-18T01:52:37;15.38;;;9.77;;
57842;SDS011;43673;51.058;3.734;2023-09-18T01:55:03;11.10;;;8.90;;
57842;SDS011;43673;51.058;3.734;2023-09-18T01:57:32;12.32;;;8.27;;
57842;SDS011;43673;51.058;3.734;2023-09-18T01:59:58;13.80;;;7.90;;
57842;SDS011;43673;51.058;3.734;2023-09-18T02:02:24;11.18;;;8.82;;
57842;SDS011;43673;51.058;3.734;2023-09-18T02:04:50;13.07;;;8.25;;
57842;SDS011;43673;51.058;3.734;2023-09-18T02:07:15;13.32;;;8.82;;
57842;SDS011;43673;51.058;3.734;2023-09-18T02:09:41;13.52;;;8.40;;
57842;SDS011;43673;51.058;3.734;2023-09-18T02:12:07;11.90;;;9.10;;
57842;SDS011;43673;51.058;3.734;2023-09-18T02:14:32;14.32;;;8.73;;
57842;SDS011;43673;51.058;3.734;2023-09-18T02:16:59;11.50;;;8.98;;
57842;SDS011;43673;51.058;3.734;2023-09-18T02:19:24;12.15;;;8.73;;
57842;SDS011;43673;51.058;3.734;2023-09-18T02:21:51;11.45;;;7.55;;
57842;SDS011;43673;51.058;3.734;2023-09-18T02:24:17;10.05;;;8.15;;
57842;SDS011;43673;51.058;3.734;2023-09-18T02:26:42;11.35;;;8.88;;
57842;SDS011;43673;51.058;3.734;2023-09-18T02:29:10;14.63;;;9.18;;
57842;SDS011;43673;51.058;3.734;2023-09-18T02:31:37;10.57;;;8.30;;
57842;SDS011;43673;51.058;3.734;2023-09-18T02:34:03;9.38;;;8.43;;
57842;SDS011;43673;51.058;3.734;2023-09-18T02:36:29;12.88;;;7.88;;
57842;SDS011;43673;51.058;3.734;2023-09-18T02:38:55;11.45;;;8.05;;
57842;SDS011;43673;51.058;3.734;2023-09-18T02:41:21;8.73;;;7.32;;
57842;SDS011;43673;51.058;3.734;2023-09-18T02:43:47;11.65;;;7.72;;
57842;SDS011;43673;51.058;3.734;2023-09-18T02:46:12;10.82;;;7.75;;
57842;SDS011;43673;51.058;3.734;2023-09-18T02:48:38;10.02;;;6.35;;
57842;SDS011;43673;51.058;3.734;2023-09-18T02:51:04;11.70;;;6.93;;
57842;SDS011;43673;51.058;3.734;2023-09-18T02:53:30;12.60;;;6.50;;
57842;SDS011;43673;51.058;3.734;2023-09-18T02:55:57;9.85;;;6.85;;
57842;SDS011;43673;51.058;3.734;2023-09-18T02:58:24;9.07;;;6.20;;
57842;SDS011;43673;51.058;3.734;2023-09-18T03:00:55;9.75;;;6.10;;
57842;SDS011;43673;51.058;3.734;2023-09-18T03:03:25;8.93;;;5.97;;
57842;SDS011;43673;51.058;3.734;2023-09-18T03:05:51;7.85;;;6.15;;
57842;SDS011;43673;51.058;3.734;2023-09-18T03:08:16;8.70;;;6.43;;
57842;SDS011;43673;51.058;3.734;2023-09-18T03:10:42;8.30;;;5.68;;
57842;SDS011;43673;51.058;3.734;2023-09-18T03:13:09;9.95;;;5.38;;
57842;SDS011;43673;51.058;3.734;2023-09-18T03:15:36;7.13;;;5.32;;
57842;SDS011;43673;51.058;3.734;2023-09-18T03:18:03;7.45;;;5.50;;
57842;SDS011;43673;51.058;3.734;2023-09-18T03:20:30;8.10;;;5.78;;
57842;SDS011;43673;51.058;3.734;2023-09-18T03:22:57;7.38;;;5.95;;
57842;SDS011;43673;51.058;3.734;2023-09-18T03:25:24;9.07;;;5.80;;
57842;SDS011;43673;51.058;3.734;2023-09-18T03:27:54;8.25;;;5.78;;
57842;SDS011;43673;51.058;3.734;2023-09-18T03:30:21;8.48;;;5.95;;
57842;SDS011;43673;51.058;3.734;2023-09-18T03:32:48;5.82;;;5.03;;
57842;SDS011;43673;51.058;3.734;2023-09-18T03:35:14;7.78;;;5.68;;
57842;SDS011;43673;51.058;3.734;2023-09-18T03:37:43;8.80;;;5.88;;
57842;SDS011;43673;51.058;3.734;2023-09-18T03:40:17;8.27;;;6.30;;
57842;SDS011;43673;51.058;3.734;2023-09-18T03:42:43;8.02;;;6.03;;
57842;SDS011;43673;51.058;3.734;2023-09-18T03:45:09;9.77;;;6.72;;
57842;SDS011;43673;51.058;3.734;2023-09-18T03:47:36;8.45;;;6.43;;
57842;SDS011;43673;51.058;3.734;2023-09-18T03:50:06;7.90;;;6.22;;
57842;SDS011;43673;51.058;3.734;2023-09-18T03:52:35;13.10;;;8.25;;
57842;SDS011;43673;51.058;3.734;2023-09-18T03:55:01;10.32;;;7.07;;
57842;SDS011;43673;51.058;3.734;2023-09-18T03:57:27;10.38;;;7.45;;
57842;SDS011;43673;51.058;3.734;2023-09-18T03:59:53;11.30;;;6.65;;
57842;SDS011;43673;51.058;3.734;2023-09-18T04:02:18;11.48;;;6.95;;
57842;SDS011;43673;51.058;3.734;2023-09-18T04:04:44;9.48;;;6.95;;
57842;SDS011;43673;51.058;3.734;2023-09-18T04:07:10;11.20;;;7.68;;
57842;SDS011;43673;51.058;3.734;2023-09-18T04:09:36;10.68;;;6.95;;
57842;SDS011;43673;51.058;3.734;2023-09-18T04:12:05;7.73;;;6.67;;
57842;SDS011;43673;51.058;3.734;2023-09-18T04:14:31;8.43;;;6.38;;
57842;SDS011;43673;51.058;3.734;2023-09-18T04:16:57;7.68;;;5.93;;
57842;SDS011;43673;51.058;3.734;2023-09-18T04:19:25;9.05;;;6.47;;
57842;SDS011;43673;51.058;3.734;2023-09-18T04:21:51;9.73;;;5.15;;
57842;SDS011;43673;51.058;3.734;2023-09-18T04:24:17;7.20;;;5.47;;
57842;SDS011;43673;51.058;3.734;2023-09-18T04:26:42;8.02;;;4.97;;
57842;SDS011;43673;51.058;3.734;2023-09-18T04:29:08;5.30;;;4.63;;
57842;SDS011;43673;51.058;3.734;2023-09-18T04:31:34;6.32;;;4.82;;
57842;SDS011;43673;51.058;3.734;2023-09-18T04:34:00;5.88;;;4.22;;
57842;SDS011;43673;51.058;3.734;2023-09-18T04:36:25;7.13;;;4.05;;
57842;SDS011;43673;51.058;3.734;2023-09-18T04:38:51;6.63;;;3.80;;
57842;SDS011;43673;51.058;3.734;2023-09-18T04:41:17;7.97;;;4.20;;
57842;SDS011;43673;51.058;3.734;2023-09-18T04:43:43;6.72;;;5.20;;
57842;SDS011;43673;51.058;3.734;2023-09-18T04:46:09;9.50;;;4.00;;
57842;SDS011;43673;51.058;3.734;2023-09-18T04:48:35;8.63;;;4.30;;
57842;SDS011;43673;51.058;3.734;2023-09-18T04:51:01;7.50;;;3.55;;
57842;SDS011;43673;51.058;3.734;2023-09-18T04:53:28;6.35;;;3.90;;
57842;SDS011;43673;51.058;3.734;2023-09-18T04:55:55;5.05;;;3.78;;
57842;SDS011;43673;51.058;3.734;2023-09-18T04:58:21;5.63;;;3.45;;
57842;SDS011;43673;51.058;3.734;2023-09-18T05:00:47;6.47;;;3.70;;
57842;SDS011;43673;51.058;3.734;2023-09-18T05:03:22;6.38;;;3.95;;
57842;SDS011;43673;51.058;3.734;2023-09-18T05:05:48;5.18;;;3.75;;
57842;SDS011;43673;51.058;3.734;2023-09-18T05:08:14;5.45;;;3.42;;
57842;SDS011;43673;51.058;3.734;2023-09-18T05:10:41;7.30;;;3.40;;
57842;SDS011;43673;51.058;3.734;2023-09-18T05:13:08;5.57;;;3.92;;
57842;SDS011;43673;51.058;3.734;2023-09-18T05:15:34;6.20;;;3.13;;
57842;SDS011;43673;51.058;3.734;2023-09-18T05:18:01;4.55;;;3.50;;
57842;SDS011;43673;51.058;3.734;2023-09-18T05:20:29;6.63;;;3.70;;
57842;SDS011;43673;51.058;3.734;2023-09-18T05:22:56;5.35;;;3.63;;
57842;SDS011;43673;51.058;3.734;2023-09-18T05:25:23;4.97;;;3.88;;
57842;SDS011;43673;51.058;3.734;2023-09-18T05:27:54;6.82;;;3.72;;
57842;SDS011;43673;51.058;3.734;2023-09-18T05:30:29;5.43;;;3.85;;
57842;SDS011;43673;51.058;3.734;2023-09-18T05:32:58;8.20;;;3.88;;
57842;SDS011;43673;51.058;3.734;2023-09-18T05:35:33;5.50;;;3.08;;
57842;SDS011;43673;51.058;3.734;2023-09-18T05:38:02;8.68;;;6.47;;
57842;SDS011;43673;51.058;3.734;2023-09-18T05:40:28;5.50;;;3.10;;
57842;SDS011;43673;51.058;3.734;2023-09-18T05:42:55;7.68;;;4.15;;
57842;SDS011;43673;51.058;3.734;2023-09-18T05:45:21;9.00;;;3.42;;
57842;SDS011;43673;51.058;3.734;2023-09-18T05:47:47;5.97;;;4.03;;
57842;SDS011;43673;51.058;3.734;2023-09-18T05:50:14;6.30;;;3.78;;
57842;SDS011;43673;51.058;3.734;2023-09-18T05:52:42;7.47;;;3.28;;
57842;SDS011;43673;51.058;3.734;2023-09-18T05:55:08;7.18;;;3.53;;
57842;SDS011;43673;51.058;3.734;2023-09-18T05:57:35;6.55;;;4.05;;
57842;SDS011;43673;51.058;3.734;2023-09-18T06:00:03;6.10;;;3.67;;
57842;SDS011;43673;51.058;3.734;2023-09-18T06:02:30;6.32;;;3.97;;
57842;SDS011;43673;51.058;3.734;2023-09-18T06:04:56;7.15;;;3.47;;
57842;SDS011;43673;51.058;3.734;2023-09-18T06:09:52;4.78;;;3.65;;
57842;SDS011;43673;51.058;3.734;2023-09-18T06:12:18;5.57;;;3.40;;
57842;SDS011;43673;51.058;3.734;2023-09-18T06:14:44;6.78;;;3.38;;
57842;SDS011;43673;51.058;3.734;2023-09-18T06:17:11;4.53;;;3.63;;
57842;SDS011;43673;51.058;3.734;2023-09-18T06:19:37;5.43;;;3.95;;
57842;SDS011;43673;51.058;3.734;2023-09-18T06:22:04;8.10;;;3.50;;
57842;SDS011;43673;51.058;3.734;2023-09-18T06:24:29;5.32;;;3.50;;
57842;SDS011;43673;51.058;3.734;2023-09-18T06:26:55;6.80;;;3.50;;
57842;SDS011;43673;51.058;3.734;2023-09-18T06:29:21;10.15;;;4.20;;
57842;SDS011;43673;51.058;3.734;2023-09-18T06:31:46;7.53;;;3.75;;
57842;SDS011;43673;51.058;3.734;2023-09-18T06:34:14;7.55;;;3.90;;
57842;SDS011;43673;51.058;3.734;2023-09-18T06:36:40;7.90;;;3.63;;
57842;SDS011;43673;51.058;3.734;2023-09-18T06:39:06;7.35;;;3.88;;
57842;SDS011;43673;51.058;3.734;2023-09-18T06:41:32;8.13;;;3.78;;
57842;SDS011;43673;51.058;3.734;2023-09-18T06:43:58;7.35;;;3.58;;
57842;SDS011;43673;51.058;3.734;2023-09-18T06:46:27;7.30;;;3.25;;
57842;SDS011;43673;51.058;3.734;2023-09-18T06:48:54;4.43;;;3.85;;
57842;SDS011;43673;51.058;3.734;2023-09-18T06:51:21;7.50;;;3.17;;
57842;SDS011;43673;51.058;3.734;2023-09-18T06:53:47;8.32;;;4.25;;
57842;SDS011;43673;51.058;3.734;2023-09-18T06:56:13;5.10;;;3.17;;
57842;SDS011;43673;51.058;3.734;2023-09-18T06:58:39;5.63;;;3.38;;
57842;SDS011;43673;51.058;3.734;2023-09-18T07:01:04;13.43;;;5.03;;
57842;SDS011;43673;51.058;3.734;2023-09-18T07:03:34;5.97;;;3.17;;
57842;SDS011;43673;51.058;3.734;2023-09-18T07:06:01;4.55;;;3.38;;
57842;SDS011;43673;51.058;3.734;2023-09-18T07:08:27;4.07;;;3.05;;
57842;SDS011;43673;51.058;3.734;2023-09-18T07:10:53;7.63;;;3.58;;
57842;SDS011;43673;51.058;3.734;2023-09-18T07:13:19;6.18;;;3.60;;
57842;SDS011;43673;51.058;3.734;2023-09-18T07:15:45;6.70;;;3.38;;
57842;SDS011;43673;51.058;3.734;2023-09-18T07:18:10;6.25;;;4.65;;
57842;SDS011;43673;51.058;3.734;2023-09-18T07:20:39;5.00;;;3.70;;
57842;SDS011;43673;51.058;3.734;2023-09-18T07:23:06;6.63;;;3.80;;
57842;SDS011;43673;51.058;3.734;2023-09-18T07:25:32;7.35;;;4.05;;
57842;SDS011;43673;51.058;3.734;2023-09-18T07:27:58;7.90;;;3.80;;
57842;SDS011;43673;51.058;3.734;2023-09-18T07:30:24;7.43;;;4.53;;
57842;SDS011;43673;51.058;3.734;2023-09-18T07:32:52;4.57;;;4.13;;
57842;SDS011;43673;51.058;3.734;2023-09-18T07:35:23;7.32;;;3.65;;
57842;SDS011;43673;51.058;3.734;2023-09-18T07:37:49;6.43;;;3.80;;
57842;SDS011;43673;51.058;3.734;2023-09-18T07:40:15;12.38;;;4.43;;
57842;SDS011;43673;51.058;3.734;2023-09-18T07:42:41;8.93;;;4.70;;
57842;SDS011;43673;51.058;3.734;2023-09-18T07:45:09;6.50;;;4.38;;
57842;SDS011;43673;51.058;3.734;2023-09-18T07:47:35;6.72;;;4.40;;
57842;SDS011;43673;51.058;3.734;2023-09-18T07:50:00;7.18;;;3.80;;
57842;SDS011;43673;51.058;3.734;2023-09-18T07:52:27;11.05;;;4.53;;
57842;SDS011;43673;51.058;3.734;2023-09-18T07:54:53;6.75;;;4.65;;
57842;SDS011;43673;51.058;3.734;2023-09-18T07:57:18;6.80;;;3.85;;
57842;SDS011;43673;51.058;3.734;2023-09-18T07:59:45;6.55;;;4.38;;
57842;SDS011;43673;51.058;3.734;2023-09-18T08:02:11;6.15;;;3.95;;
57842;SDS011;43673;51.058;3.734;2023-09-18T08:04:37;7.45;;;4.80;;
57842;SDS011;43673;51.058;3.734;2023-09-18T08:07:03;11.43;;;7.53;;
57842;SDS011;43673;51.058;3.734;2023-09-18T08:09:31;6.18;;;4.60;;
57842;SDS011;43673;51.058;3.734;2023-09-18T08:11:58;5.63;;;4.63;;
57842;SDS011;43673;51.058;3.734;2023-09-18T08:14:26;9.57;;;5.30;;
57842;SDS011;43673;51.058;3.734;2023-09-18T08:16:55;11.63;;;4.97;;
57842;SDS011;43673;51.058;3.734;2023-09-18T08:19:27;9.43;;;5.07;;
57842;SDS011;43673;51.058;3.734;2023-09-18T08:21:54;11.40;;;5.40;;
57842;SDS011;43673;51.058;3.734;2023-09-18T08:24:21;7.88;;;5.22;;
57842;SDS011;43673;51.058;3.734;2023-09-18T08:26:48;8.48;;;4.53;;
57842;SDS011;43673;51.058;3.734;2023-09-18T08:29:14;9.38;;;4.82;;
57842;SDS011;43673;51.058;3.734;2023-09-18T08:31:40;9.57;;;5.28;;
57842;SDS011;43673;51.058;3.734;2023-09-18T08:34:06;7.97;;;5.82;;
57842;SDS011;43673;51.058;3.734;2023-09-18T08:36:32;8.32;;;5.80;;
57842;SDS011;43673;51.058;3.734;2023-09-18T08:38:57;10.50;;;6.15;;
57842;SDS011;43673;51.058;3.734;2023-09-18T08:41:24;9.05;;;5.75;;
57842;SDS011;43673;51.058;3.734;2023-09-18T08:43:54;7.43;;;5.15;;
57842;SDS011;43673;51.058;3.734;2023-09-18T08:46:28;6.95;;;4.75;;
57842;SDS011;43673;51.058;3.734;2023-09-18T08:48:54;7.50;;;4.60;;
57842;SDS011;43673;51.058;3.734;2023-09-18T08:51:22;5.07;;;3.95;;
57842;SDS011;43673;51.058;3.734;2023-09-18T08:53:48;7.72;;;3.90;;
57842;SDS011;43673;51.058;3.734;2023-09-18T08:56:14;8.35;;;4.00;;
57842;SDS011;43673;51.058;3.734;2023-09-18T08:58:42;9.88;;;4.20;;
57842;SDS011;43673;51.058;3.734;2023-09-18T09:01:09;4.45;;;3.85;;
57842;SDS011;43673;51.058;3.734;2023-09-18T09:03:42;6.40;;;3.65;;
57842;SDS011;43673;51.058;3.734;2023-09-18T09:06:11;7.53;;;3.97;;
57842;SDS011;43673;51.058;3.734;2023-09-18T09:08:37;7.68;;;4.00;;
57842;SDS011;43673;51.058;3.734;2023-09-18T09:11:03;7.65;;;4.18;;
57842;SDS011;43673;51.058;3.734;2023-09-18T09:13:29;6.55;;;4.47;;
57842;SDS011;43673;51.058;3.734;2023-09-18T09:15:55;4.50;;;4.10;;
57842;SDS011;43673;51.058;3.734;2023-09-18T09:18:23;6.30;;;3.63;;
57842;SDS011;43673;51.058;3.734;2023-09-18T09:21:08;6.68;;;5.07;;
57842;SDS011;43673;51.058;3.734;2023-09-18T09:23:50;8.32;;;4.95;;
57842;SDS011;43673;51.058;3.734;2023-09-18T09:26:18;5.65;;;4.07;;
57842;SDS011;43673;51.058;3.734;2023-09-18T09:28:46;8.45;;;4.18;;
57842;SDS011;43673;51.058;3.734;2023-09-18T09:31:25;6.60;;;4.20;;
57842;SDS011;43673;51.058;3.734;2023-09-18T09:33:52;8.77;;;4.60;;
57842;SDS011;43673;51.058;3.734;2023-09-18T09:36:19;11.55;;;4.38;;
57842;SDS011;43673;51.058;3.734;2023-09-18T09:38:49;6.47;;;4.30;;
57842;SDS011;43673;51.058;3.734;2023-09-18T09:41:22;8.40;;;4.18;;
57842;SDS011;43673;51.058;3.734;2023-09-18T09:43:47;9.00;;;5.43;;
57842;SDS011;43673;51.058;3.734;2023-09-18T09:46:17;6.82;;;5.68;;
57842;SDS011;43673;51.058;3.734;2023-09-18T09:49:05;9.35;;;4.40;;
57842;SDS011;43673;51.058;3.734;2023-09-18T09:51:32;8.48;;;4.32;;
57842;SDS011;43673;51.058;3.734;2023-09-18T09:53:59;6.32;;;4.45;;
57842;SDS011;43673;51.058;3.734;2023-09-18T09:59:11;6.85;;;4.78;;
57842;SDS011;43673;51.058;3.734;2023-09-18T10:01:38;7.47;;;4.28;;
57842;SDS011;43673;51.058;3.734;2023-09-18T10:04:08;6.30;;;4.43;;
57842;SDS011;43673;51.058;3.734;2023-09-18T10:06:37;8.13;;;5.05;;
57842;SDS011;43673;51.058;3.734;2023-09-18T10:09:06;7.38;;;4.63;;
57842;SDS011;43673;51.058;3.734;2023-09-18T10:11:35;6.80;;;3.85;;
57842;SDS011;43673;51.058;3.734;2023-09-18T10:14:14;6.45;;;4.28;;
57842;SDS011;43673;51.058;3.734;2023-09-18T10:16:45;7.60;;;4.72;;
57842;SDS011;43673;51.058;3.734;2023-09-18T10:19:27;5.88;;;4.10;;
57842;SDS011;43673;51.058;3.734;2023-09-18T10:24:54;8.45;;;3.83;;
57842;SDS011;43673;51.058;3.734;2023-09-18T10:27:25;9.63;;;3.58;;
57842;SDS011;43673;51.058;3.734;2023-09-18T10:29:53;5.90;;;3.80;;
57842;SDS011;43673;51.058;3.734;2023-09-18T10:32:20;5.43;;;3.67;;
57842;SDS011;43673;51.058;3.734;2023-09-18T10:34:47;11.48;;;4.10;;
57842;SDS011;43673;51.058;3.734;2023-09-18T10:37:14;7.45;;;4.03;;
57842;SDS011;43673;51.058;3.734;2023-09-18T10:39:41;6.93;;;3.90;;
57842;SDS011;43673;51.058;3.734;2023-09-18T10:42:09;5.03;;;3.87;;
57842;SDS011;43673;51.058;3.734;2023-09-18T10:44:37;6.80;;;4.35;;
57842;SDS011;43673;51.058;3.734;2023-09-18T10:47:06;6.67;;;3.70;;
57842;SDS011;43673;51.058;3.734;2023-09-18T10:49:35;5.47;;;3.63;;
57842;SDS011;43673;51.058;3.734;2023-09-18T10:52:01;6.68;;;4.45;;
57842;SDS011;43673;51.058;3.734;2023-09-18T10:54:29;5.43;;;3.88;;
57842;SDS011;43673;51.058;3.734;2023-09-18T10:56:56;7.72;;;4.07;;
57842;SDS011;43673;51.058;3.734;2023-09-18T10:59:23;6.63;;;3.83;;
57842;SDS011;43673;51.058;3.734;2023-09-18T11:01:49;5.25;;;3.58;;
57842;SDS011;43673;51.058;3.734;2023-09-18T11:04:18;3.85;;;3.33;;
57842;SDS011;43673;51.058;3.734;2023-09-18T11:09:48;5.65;;;3.70;;
57842;SDS011;43673;51.058;3.734;2023-09-18T11:12:15;7.05;;;3.33;;
57842;SDS011;43673;51.058;3.734;2023-09-18T11:17:30;4.85;;;2.90;;
57842;SDS011;43673;51.058;3.734;2023-09-18T11:22:38;5.80;;;3.20;;
57842;SDS011;43673;51.058;3.734;2023-09-18T11:27:56;8.85;;;3.40;;
57842;SDS011;43673;51.058;3.734;2023-09-18T11:30:22;8.60;;;4.05;;
57842;SDS011;43673;51.058;3.734;2023-09-18T11:32:49;5.43;;;3.15;;
57842;SDS011;43673;51.058;3.734;2023-09-18T11:35:15;3.88;;;3.00;;
57842;SDS011;43673;51.058;3.734;2023-09-18T11:37:43;7.65;;;3.83;;
57842;SDS011;43673;51.058;3.734;2023-09-18T11:40:29;5.50;;;2.65;;
57842;SDS011;43673;51.058;3.734;2023-09-18T11:43:18;7.00;;;3.05;;
57842;SDS011;43673;51.058;3.734;2023-09-18T11:45:54;5.32;;;3.40;;
57842;SDS011;43673;51.058;3.734;2023-09-18T11:48:22;7.05;;;2.83;;
57842;SDS011;43673;51.058;3.734;2023-09-18T11:50:51;5.93;;;2.80;;
57842;SDS011;43673;51.058;3.734;2023-09-18T11:53:17;8.50;;;3.47;;
57842;SDS011;43673;51.058;3.734;2023-09-18T11:55:44;4.82;;;3.83;;
57842;SDS011;43673;51.058;3.734;2023-09-18T11:58:10;6.80;;;3.67;;
57842;SDS011;43673;51.058;3.734;2023-09-18T12:00:36;6.75;;;2.75;;
57842;SDS011;43673;51.058;3.734;2023-09-18T12:03:17;7.93;;;3.35;;
57842;SDS011;43673;51.058;3.734;2023-09-18T12:05:59;11.07;;;2.97;;
57842;SDS011;43673;51.058;3.734;2023-09-18T12:08:28;6.10;;;3.95;;
57842;SDS011;43673;51.058;3.734;2023-09-18T12:10:56;5.93;;;3.47;;
57842;SDS011;43673;51.058;3.734;2023-09-18T12:13:23;4.85;;;2.80;;
57842;SDS011;43673;51.058;3.734;2023-09-18T12:15:55;5.65;;;3.40;;
57842;SDS011;43673;51.058;3.734;2023-09-18T12:18:25;10.85;;;3.50;;
57842;SDS011;43673;51.058;3.734;2023-09-18T12:20:53;8.27;;;3.25;;
57842;SDS011;43673;51.058;3.734;2023-09-18T12:23:21;8.27;;;3.40;;
57842;SDS011;43673;51.058;3.734;2023-09-18T12:25:47;8.80;;;3.45;;
57842;SDS011;43673;51.058;3.734;2023-09-18T12:28:15;8.40;;;3.10;;
57842;SDS011;43673;51.058;3.734;2023-09-18T12:30:42;4.53;;;3.30;;
57842;SDS011;43673;51.058;3.734;2023-09-18T12:33:11;4.93;;;2.85;;
57842;SDS011;43673;51.058;3.734;2023-09-18T12:35:40;3.80;;;2.85;;
57842;SDS011;43673;51.058;3.734;2023-09-18T12:38:16;5.55;;;3.00;;
57842;SDS011;43673;51.058;3.734;2023-09-18T12:40:47;6.63;;;3.85;;
57842;SDS011;43673;51.058;3.734;2023-09-18T12:43:14;8.13;;;3.38;;
57842;SDS011;43673;51.058;3.734;2023-09-18T12:45:40;7.65;;;2.75;;
57842;SDS011;43673;51.058;3.734;2023-09-18T12:48:08;12.07;;;3.70;;
57842;SDS011;43673;51.058;3.734;2023-09-18T12:50:35;10.70;;;3.38;;
57842;SDS011;43673;51.058;3.734;2023-09-18T12:53:10;5.88;;;2.63;;
57842;SDS011;43673;51.058;3.734;2023-09-18T12:55:37;7.05;;;3.33;;
57842;SDS011;43673;51.058;3.734;2023-09-18T12:58:04;5.72;;;2.83;;
57842;SDS011;43673;51.058;3.734;2023-09-18T13:00:32;8.02;;;2.78;;
57842;SDS011;43673;51.058;3.734;2023-09-18T13:02:59;10.65;;;3.25;;
57842;SDS011;43673;51.058;3.734;2023-09-18T13:05:25;6.68;;;3.28;;
57842;SDS011;43673;51.058;3.734;2023-09-18T13:07:51;7.50;;;2.95;;
57842;SDS011;43673;51.058;3.734;2023-09-18T13:10:19;7.18;;;3.28;;
57842;SDS011;43673;51.058;3.734;2023-09-18T13:12:50;10.23;;;2.47;;
57842;SDS011;43673;51.058;3.734;2023-09-18T13:15:24;5.65;;;3.15;;
57842;SDS011;43673;51.058;3.734;2023-09-18T13:17:52;7.07;;;2.70;;
57842;SDS011;43673;51.058;3.734;2023-09-18T13:20:20;7.28;;;3.42;;
57842;SDS011;43673;51.058;3.734;2023-09-18T13:22:51;12.88;;;4.28;;
57842;SDS011;43673;51.058;3.734;2023-09-18T13:25:26;8.20;;;3.03;;
57842;SDS011;43673;51.058;3.734;2023-09-18T13:27:54;9.63;;;3.20;;
57842;SDS011;43673;51.058;3.734;2023-09-18T13:30:20;6.15;;;2.38;;
57842;SDS011;43673;51.058;3.734;2023-09-18T13:32:47;6.72;;;2.45;;
57842;SDS011;43673;51.058;3.734;2023-09-18T13:35:15;6.95;;;2.38;;
57842;SDS011;43673;51.058;3.734;2023-09-18T13:37:42;5.20;;;2.00;;
57842;SDS011;43673;51.058;3.734;2023-09-18T13:40:09;3.60;;;2.55;;
57842;SDS011;43673;51.058;3.734;2023-09-18T13:42:35;6.47;;;2.72;;
57842;SDS011;43673;51.058;3.734;2023-09-18T13:45:02;4.97;;;2.25;;
57842;SDS011;43673;51.058;3.734;2023-09-18T13:47:29;7.95;;;2.55;;
57842;SDS011;43673;51.058;3.734;2023-09-18T13:49:55;6.80;;;3.30;;
57842;SDS011;43673;51.058;3.734;2023-09-18T13:52:31;6.85;;;3.25;;
57842;SDS011;43673;51.058;3.734;2023-09-18T13:54:58;4.38;;;2.75;;
57842;SDS011;43673;51.058;3.734;2023-09-18T13:57:24;4.40;;;2.78;;
57842;SDS011;43673;51.058;3.734;2023-09-18T13:59:50;4.28;;;2.83;;
57842;SDS011;43673;51.058;3.734;2023-09-18T14:02:17;5.03;;;3.15;;
57842;SDS011;43673;51.058;3.734;2023-09-18T14:04:43;5.38;;;3.55;;
57842;SDS011;43673;51.058;3.734;2023-09-18T14:07:10;7.13;;;3.40;;
57842;SDS011;43673;51.058;3.734;2023-09-18T14:09:37;4.50;;;3.08;;
57842;SDS011;43673;51.058;3.734;2023-09-18T14:12:03;6.80;;;3.20;;
57842;SDS011;43673;51.058;3.734;2023-09-18T14:14:32;6.93;;;4.00;;
57842;SDS011;43673;51.058;3.734;2023-09-18T14:16:58;3.80;;;2.88;;
57842;SDS011;43673;51.058;3.734;2023-09-18T14:19:24;4.30;;;3.20;;
57842;SDS011;43673;51.058;3.734;2023-09-18T14:21:50;7.57;;;3.33;;
57842;SDS011;43673;51.058;3.734;2023-09-18T14:24:17;4.97;;;3.22;;
57842;SDS011;43673;51.058;3.734;2023-09-18T14:26:47;5.63;;;3.53;;
57842;SDS011;43673;51.058;3.734;2023-09-18T14:29:14;5.72;;;3.42;;
57842;SDS011;43673;51.058;3.734;2023-09-18T14:31:40;3.97;;;2.67;;
57842;SDS011;43673;51.058;3.734;2023-09-18T14:34:05;5.28;;;2.63;;
57842;SDS011;43673;51.058;3.734;2023-09-18T14:36:32;5.15;;;2.88;;
57842;SDS011;43673;51.058;3.734;2023-09-18T14:39:01;4.43;;;2.63;;
57842;SDS011;43673;51.058;3.734;2023-09-18T14:41:28;6.97;;;2.70;;
57842;SDS011;43673;51.058;3.734;2023-09-18T14:43:55;3.70;;;2.90;;
57842;SDS011;43673;51.058;3.734;2023-09-18T14:46:23;4.60;;;2.95;;
57842;SDS011;43673;51.058;3.734;2023-09-18T14:48:49;4.60;;;2.50;;
57842;SDS011;43673;51.058;3.734;2023-09-18T14:53:50;4.47;;;2.45;;
57842;SDS011;43673;51.058;3.734;2023-09-18T14:56:15;6.20;;;3.28;;
57842;SDS011;43673;51.058;3.734;2023-09-18T14:58:41;6.68;;;2.88;;
57842;SDS011;43673;51.058;3.734;2023-09-18T15:01:08;4.68;;;2.28;;
57842;SDS011;43673;51.058;3.734;2023-09-18T15:03:35;2.47;;;2.25;;
57842;SDS011;43673;51.058;3.734;2023-09-18T15:06:00;3.75;;;2.30;;
57842;SDS011;43673;51.058;3.734;2023-09-18T15:08:26;2.65;;;2.40;;
57842;SDS011;43673;51.058;3.734;2023-09-18T15:10:52;4.25;;;2.85;;